Time;durP1;ratioP1;P1;durP2;ratioP2;P2;SDS_P1;SDS_P2;PMS_P1;PMS_P2;Temp;Humidity;BMP_temperature;BMP_pressure;BME280_temperature;BME280_humidity;BME280_pressure;Samples;Min_cycle;Max_cycle;Signal;HPM_P1;HPM_P2
2022/08/26 03:49:21;;;;;;;;;;;;;;;25.18;53.50;96648.53;4239858;27;10375;-68
2022/08/26 03:51:23;;;;;;;;;;;;;;;25.42;53.15;96648.47;4217877;28;5712;-67
2022/08/26 03:53:26;;;;;;;;;;;;;;;25.62;53.25;96638.47;4214837;28;5145;-66
2022/08/26 03:55:32;;;;;;;;;;;;;;;25.77;52.77;96644.47;4222940;28;5671;-66
2022/08/26 03:57:35;;;;;;;;;;;;;;;25.89;52.68;96645.94;4215341;28;6031;-66
2022/08/26 03:59:37;;;;;;;;;;;;;;;25.98;52.36;96650.38;4224759;28;5679;-67
2022/08/26 04:01:43;;;;;;;;;;;;;;;26.04;51.97;96646.47;4237626;27;5669;-67
2022/08/26 04:03:58;;;;;;;;;;;;;;;26.08;52.25;96644.81;4221322;28;5834;-67
2022/08/26 04:06:04;;;;;;;;;;;;;;;26.15;52.25;96644.41;4227453;28;5795;-70
2022/08/26 04:08:07;;;;;;;;;;;;;;;26.18;51.99;96648.47;4230880;28;5667;-67
2022/08/26 04:10:14;;;;;;;;;;;;;;;26.22;51.64;96649.47;4231215;28;5215;-67
2022/08/26 04:12:22;;;;;;;;;;;;;;;26.23;51.85;96654.59;4231208;28;5683;-67
2022/08/26 04:14:27;;;;;;;;;;;;;;;26.25;51.46;96654.28;4230439;28;5806;-67
2022/08/26 04:16:31;;;;;;;;;;;;;;;26.26;51.61;96650.47;4215787;28;5825;-67
2022/08/26 04:18:36;;;;;;;;;;;;;;;26.30;51.28;96654.22;4225998;28;5671;-67
2022/08/26 04:20:46;;;;;;;;;;;;;;;26.27;51.63;96652.88;4223697;28;5821;-67
2022/08/26 04:22:50;;;;;;;;;;;;;;;26.34;51.27;96657.94;4229325;28;5714;-67
2022/08/26 04:24:53;;;;;;;;;;;;;;;26.34;51.29;96652.50;4226007;28;5695;-67
2022/08/26 04:26:57;;;;;;;;;;;;;;;26.35;51.17;96659.53;4219686;28;7748;-66
2022/08/26 04:29:01;;;;;;;;;;;;;;;26.36;51.01;96661.13;4220604;28;5689;-66
2022/08/26 04:31:04;;;;;;;;;;;;;;;26.33;51.24;96654.41;4219330;28;5701;-67
2022/08/26 04:33:07;;;;;;;;;;;;;;;26.32;50.97;96655.53;4229109;28;5738;-69
2022/08/26 04:35:15;;;;;;;;;;;;;;;26.32;51.38;96660.13;4228151;28;6089;-67
2022/08/26 04:37:18;;;;;;;;;;;;;;;26.34;50.99;96658.72;4225723;28;5671;-67
2022/08/26 04:39:24;;;;;;;;;;;;;;;26.35;51.14;96654.13;4224031;28;5929;-68
2022/08/26 04:41:30;;;;;;;;;;;;;;;26.36;51.13;96663.84;4224124;28;5667;-68
2022/08/26 04:43:33;;;;;;;;;;;;;;;26.37;51.28;96657.34;4222986;28;5802;-67
2022/08/26 04:45:36;;;;;;;;;;;;;;;26.38;50.88;96653.53;4219534;28;5902;-66
2022/08/26 04:47:40;;;;;;;;;;;;;;;26.37;51.09;96655.44;4228218;28;5875;-66
2022/08/26 04:49:43;;;;;;;;;;;;;;;26.39;51.01;96663.31;4212074;28;5667;-67
2022/08/26 04:51:47;;;;;;;;;;;;;;;26.39;51.07;96663.31;4214253;28;5783;-66
2022/08/26 04:53:51;;;;;;;;;;;;;;;26.41;50.74;96650.25;4208844;28;5767;-65
2022/08/26 04:55:55;;;;;;;;;;;;;;;26.42;50.98;96660.00;4216194;28;5691;-67
2022/08/26 04:57:59;;;;;;;;;;;;;;;26.43;50.83;96652.66;4210402;28;5691;-67
2022/08/26 05:00:02;;;;;;;;;;;;;;;26.43;50.88;96656.19;4208674;28;5692;-66
2022/08/26 05:02:05;;;;;;;;;;;;;;;26.42;50.92;96653.78;4205188;28;5803;-68
2022/08/26 05:04:08;;;;;;;;;;;;;;;26.46;50.79;96654.78;4212777;28;5742;-67
2022/08/26 05:06:12;;;;;;;;;;;;;;;26.47;50.92;96649.06;4210295;28;5819;-67
2022/08/26 05:08:15;;;;;;;;;;;;;;;26.47;50.92;96646.34;4213163;28;5815;-66
2022/08/26 05:10:20;;;;;;;;;;;;;;;26.49;50.69;96649.56;4208505;28;5819;-67
2022/08/26 05:12:25;;;;;;;;;;;;;;;26.51;50.76;96646.56;4215623;28;6356;-66
2022/08/26 05:14:27;;;;;;;;;;;;;;;26.54;50.72;96651.38;4212489;28;5809;-66
2022/08/26 05:16:30;;;;;;;;;;;;;;;26.55;50.32;96653.78;4211763;28;5667;-67
2022/08/26 05:18:34;;;;;;;;;;;;;;;26.57;50.40;96656.19;4209676;28;5683;-67
2022/08/26 05:20:39;;;;;;;;;;;;;;;26.58;50.27;96649.69;4216211;28;5735;-67
2022/08/26 05:22:44;;;;;;;;;;;;;;;26.60;49.95;96655.59;4210431;28;6484;-64
2022/08/26 05:24:47;;;;;;;;;;;;;;;26.61;49.84;96658.00;4213246;28;6729;-65
2022/08/26 05:26:50;;;;;;;;;;;;;;;26.62;50.01;96658.84;4213112;28;5775;-65
2022/08/26 05:28:55;;;;;;;;;;;;;;;26.65;49.74;96658.22;4210929;28;5687;-64
2022/08/26 05:30:58;;;;;;;;;;;;;;;26.65;49.71;96655.53;4212692;28;5763;-65
2022/08/26 05:33:02;;;;;;;;;;;;;;;26.66;49.51;96651.69;4217225;28;5655;-65
2022/08/26 05:35:06;;;;;;;;;;;;;;;26.67;49.56;96659.53;4218307;28;5750;-65
2022/08/26 05:37:10;;;;;;;;;;;;;;;26.69;49.19;96653.81;4218129;28;5676;-64
2022/08/26 05:39:15;;;;;;;;;;;;;;;26.68;49.49;96663.84;4218254;28;5109;-65
2022/08/26 05:41:27;;;;;;;;;;;;;;;26.69;49.24;96660.03;4212808;28;5739;-65
2022/08/26 05:43:38;;;;;;;;;;;;;;;26.72;49.10;96663.25;4210284;28;5734;-65
2022/08/26 05:45:46;;;;;;;;;;;;;;;26.72;49.33;96668.66;4210689;28;5696;-65
2022/08/26 05:47:50;;;;;;;;;;;;;;;26.72;49.06;96674.09;4212538;28;5878;-64
2022/08/26 05:49:54;;;;;;;;;;;;;;;26.74;49.07;96677.31;4210571;28;5675;-64
2022/08/26 05:51:57;;;;;;;;;;;;;;;26.77;49.21;96676.72;4211095;28;5695;-65
2022/08/26 05:54:01;;;;;;;;;;;;;;;26.79;49.27;96686.16;4209178;28;5905;-65
2022/08/26 05:56:06;;;;;;;;;;;;;;;26.80;49.06;96676.13;4212887;28;5859;-65
2022/08/26 05:58:10;;;;;;;;;;;;;;;26.80;48.91;96676.13;4217930;28;5899;-64
2022/08/26 06:00:15;;;;;;;;;;;;;;;26.79;49.05;96677.22;4217943;28;5652;-64
2022/08/26 06:02:19;;;;;;;;;;;;;;;26.79;48.93;96677.22;4217464;28;5730;-65
2022/08/26 06:04:24;;;;;;;;;;;;;;;26.80;49.26;96676.13;4218344;28;5671;-65
2022/08/26 06:06:32;;;;;;;;;;;;;;;26.80;49.25;96682.34;4218236;28;5772;-65
2022/08/26 06:08:36;;;;;;;;;;;;;;;26.82;49.23;96682.84;4216837;28;5097;-64
2022/08/26 06:10:44;;;;;;;;;;;;;;;26.84;49.03;96683.38;4217958;28;5642;-66
2022/08/26 06:12:47;;;;;;;;;;;;;;;26.85;48.95;96689.59;4218012;28;5654;-65
2022/08/26 06:14:50;;;;;;;;;;;;;;;26.86;49.05;96686.56;4218136;28;5665;-65
2022/08/26 06:16:53;;;;;;;;;;;;;;;26.85;48.97;96689.59;4218098;28;5756;-65
2022/08/26 06:18:58;;;;;;;;;;;;;;;26.85;48.97;96689.59;4217745;28;5630;-65
2022/08/26 06:21:11;;;;;;;;;;;;;;;26.86;49.03;96683.06;4218223;28;5646;-65
2022/08/26 06:25:39;;;;;;;;;;;;;;;26.85;48.87;96689.59;4217472;28;6340;-66
2022/08/26 06:27:41;;;;;;;;;;;;;;;26.83;48.94;96689.88;4217940;28;5683;-66
2022/08/26 06:29:45;;;;;;;;;;;;;;;26.82;48.96;96696.41;4217620;28;7382;-65
2022/08/26 06:31:52;;;;;;;;;;;;;;;26.82;49.19;96685.56;4217956;28;5687;-66
2022/08/26 06:33:55;;;;;;;;;;;;;;;26.81;48.72;96692.09;4217463;28;5670;-66
2022/08/26 06:36:01;;;;;;;;;;;;;;;26.82;48.75;96695.59;4217825;28;5811;-66
2022/08/26 06:38:04;;;;;;;;;;;;;;;26.83;48.98;96698.00;4217427;28;5785;-66
2022/08/26 06:40:10;;;;;;;;;;;;;;;26.83;48.75;96698.00;4217314;28;5687;-66
2022/08/26 06:42:18;;;;;;;;;;;;;;;26.86;49.05;96700.13;4217679;28;7783;-66
2022/08/26 06:44:20;;;;;;;;;;;;;;;26.89;49.08;96699.53;4217459;28;5683;-66
2022/08/26 06:46:24;;;;;;;;;;;;;;;26.93;48.81;96713.28;4217635;28;5675;-66
2022/08/26 06:48:29;;;;;;;;;;;;;;;26.95;48.87;96711.06;4217137;28;5675;-65
2022/08/26 06:50:32;;;;;;;;;;;;;;;26.97;48.95;96708.91;4208514;28;5663;-66
2022/08/26 06:52:37;;;;;;;;;;;;;;;27.00;48.97;96713.72;4215975;28;6499;-66
2022/08/26 06:54:41;;;;;;;;;;;;;;;26.97;48.76;96704.28;4217100;28;5663;-65
2022/08/26 06:56:46;;;;;;;;;;;;;;;26.99;49.13;96712.09;4217391;28;5740;-65
2022/08/26 06:58:50;;;;;;;;;;;;;;;27.00;49.04;96713.72;4205023;28;5716;-64
2022/08/26 07:00:53;;;;;;;;;;;;;;;27.00;49.10;96711.00;4200612;28;5724;-67
2022/08/26 07:02:56;;;;;;;;;;;;;;;27.00;49.14;96711.00;4200476;28;5772;-66
2022/08/26 07:04:59;;;;;;;;;;;;;;;27.03;49.23;96715.03;4200387;28;5802;-66
2022/08/26 07:07:02;;;;;;;;;;;;;;;27.02;48.98;96722.38;4200468;28;5697;-66
2022/08/26 07:09:09;;;;;;;;;;;;;;;27.03;49.20;96702.28;4200214;28;6477;-66
2022/08/26 07:11:13;;;;;;;;;;;;;;;27.07;49.15;96713.31;4200694;28;5697;-65
2022/08/26 07:13:21;;;;;;;;;;;;;;;27.11;49.04;96717.06;4198679;28;5927;-64
2022/08/26 07:15:34;;;;;;;;;;;;;;;27.12;49.17;96715.97;4212631;28;5659;-75
2022/08/26 07:17:37;;;;;;;;;;;;;;;27.15;49.23;96723.50;4216603;28;5647;-68
2022/08/26 07:19:42;;;;;;;;;;;;;;;27.18;49.07;96728.31;4211114;28;5675;-77
2022/08/26 07:21:45;;;;;;;;;;;;;;;27.16;48.72;96723.19;4207700;28;5857;-74
2022/08/26 07:23:51;;;;;;;;;;;;;;;27.15;49.02;96727.00;4211316;28;5739;-73
2022/08/26 07:26:05;;;;;;;;;;;;;;;27.14;48.73;96730.81;4206553;28;6449;-74
2022/08/26 07:28:08;;;;;;;;;;;;;;;27.12;48.65;96732.25;4214113;28;5675;-74
2022/08/26 07:30:12;;;;;;;;;;;;;;;27.12;48.45;96732.25;4212452;28;5700;-76
2022/08/26 07:32:19;;;;;;;;;;;;;;;27.14;48.42;96741.69;4204143;28;5683;-72
2022/08/26 07:34:24;;;;;;;;;;;;;;;27.15;48.58;96740.56;4213687;28;5743;-76
2022/08/26 07:36:29;;;;;;;;;;;;;;;27.18;48.46;96737.28;4208315;28;5815;-74
2022/08/26 07:38:32;;;;;;;;;;;;;;;27.23;48.46;96739.06;4208988;28;5698;-75
2022/08/26 07:40:35;;;;;;;;;;;;;;;27.28;48.35;96737.06;4206835;28;5119;-77
2022/08/26 07:42:39;;;;;;;;;;;;;;;27.30;48.43;96741.41;4209667;28;5940;-71
2022/08/26 07:44:45;;;;;;;;;;;;;;;27.32;48.35;96747.31;4207615;28;5712;-71
2022/08/26 07:46:48;;;;;;;;;;;;;;;27.33;48.65;96738.09;4207422;28;5834;-71
2022/08/26 07:48:55;;;;;;;;;;;;;;;27.36;48.54;96745.59;4209405;28;5815;-71
2022/08/26 07:50:58;;;;;;;;;;;;;;;27.38;48.47;96740.69;4216577;28;5811;-66
2022/08/26 07:53:02;;;;;;;;;;;;;;;27.41;48.52;96740.06;4216749;28;5684;-66
2022/08/26 07:55:09;;;;;;;;;;;;;;;27.42;48.71;96747.13;4216322;28;5921;-67
2022/08/26 07:57:12;;;;;;;;;;;;;;;27.42;48.91;96745.22;4216720;28;5930;-68
2022/08/26 07:59:18;;;;;;;;;;;;;;;27.42;49.15;96741.69;4216480;28;5754;-67
2022/08/26 08:01:22;;;;;;;;;;;;;;;27.45;48.96;96744.59;4216886;28;5765;-67
2022/08/26 08:03:25;;;;;;;;;;;;;;;27.45;48.88;96738.38;4217249;28;5766;-68
2022/08/26 08:05:31;;;;;;;;;;;;;;;27.43;48.99;96744.13;4216746;28;5695;-67
2022/08/26 08:07:35;;;;;;;;;;;;;;;27.43;49.31;96743.31;4216727;28;5758;-67
2022/08/26 08:09:48;;;;;;;;;;;;;;;27.45;49.10;96739.19;4216421;28;5679;-66
2022/08/26 08:11:51;;;;;;;;;;;;;;;27.45;49.17;96746.53;4216398;28;5791;-69
2022/08/26 08:13:55;;;;;;;;;;;;;;;27.44;49.27;96739.47;4216536;28;5720;-68
2022/08/26 08:16:00;;;;;;;;;;;;;;;27.42;49.20;96742.50;4216713;28;5691;-68
2022/08/26 08:18:05;;;;;;;;;;;;;;;27.44;49.13;96734.06;4216670;28;5666;-68
2022/08/26 08:20:17;;;;;;;;;;;;;;;27.43;49.17;96740.59;4216341;28;5919;-68
2022/08/26 08:22:22;;;;;;;;;;;;;;;27.41;49.07;96735.47;4215035;28;5835;-68
2022/08/26 08:24:26;;;;;;;;;;;;;;;27.44;49.17;96734.06;4217165;28;5758;-70
2022/08/26 08:26:30;;;;;;;;;;;;;;;27.46;48.83;96740.78;4219651;28;5667;-70
2022/08/26 08:28:33;;;;;;;;;;;;;;;27.47;48.89;96744.31;4219014;28;5805;-70
2022/08/26 08:30:39;;;;;;;;;;;;;;;27.51;48.87;96732.53;4219698;28;5945;-70
2022/08/26 08:32:46;;;;;;;;;;;;;;;27.53;48.92;96735.75;4220113;28;5679;-71
2022/08/26 08:34:49;;;;;;;;;;;;;;;27.54;48.84;96736.56;4221128;28;5671;-71
2022/08/26 08:36:52;;;;;;;;;;;;;;;27.54;48.78;96739.28;4219585;28;5679;-71
2022/08/26 08:38:59;;;;;;;;;;;;;;;27.51;48.70;96729.81;4218820;28;5667;-75
2022/08/26 08:41:03;;;;;;;;;;;;;;;27.51;48.80;96734.44;4220961;28;5692;-70
2022/08/26 08:43:11;;;;;;;;;;;;;;;27.51;48.50;96735.22;4221333;28;5751;-85
2022/08/26 08:45:20;;;;;;;;;;;;;;;27.51;48.66;96746.09;4219821;28;5668;-72
2022/08/26 08:47:30;;;;;;;;;;;;;;;27.51;48.55;96745.28;4202730;28;5705;-71
2022/08/26 08:49:35;;;;;;;;;;;;;;;27.52;48.55;96746.91;4204373;28;5748;-71
2022/08/26 08:51:46;;;;;;;;;;;;;;;27.53;48.40;96748.53;4219415;28;6354;-71
2022/08/26 08:53:53;;;;;;;;;;;;;;;27.54;48.43;96755.56;4219061;28;5738;-70
2022/08/26 08:56:15;;;;;;;;;;;;;;;27.53;48.26;96751.25;4219295;28;5712;-70
2022/08/26 08:58:20;;;;;;;;;;;;;;;27.53;48.26;96759.41;4219776;28;5667;-66
2022/08/26 09:00:27;;;;;;;;;;;;;;;27.54;48.25;96755.56;4218353;28;5758;-65
2022/08/26 09:02:38;;;;;;;;;;;;;;;27.54;48.17;96758.28;4213043;28;5802;-73
2022/08/26 09:05:01;;;;;;;;;;;;;;;27.56;48.24;96765.00;4219141;28;5853;-68
2022/08/26 09:07:11;;;;;;;;;;;;;;;27.55;48.31;96763.41;4219017;28;5782;-77
2022/08/26 09:09:23;;;;;;;;;;;;;;;27.53;48.46;96762.09;4219025;28;5798;-77
2022/08/26 09:11:26;;;;;;;;;;;;;;;27.51;48.43;96756.16;4219508;28;5762;-77
2022/08/26 09:13:30;;;;;;;;;;;;;;;27.50;48.51;96768.13;4217644;28;5840;-77
2022/08/26 09:15:46;;;;;;;;;;;;;;;27.47;48.82;96755.16;4224821;28;5673;-71
2022/08/26 09:18:00;;;;;;;;;;;;;;;27.42;48.66;96763.41;4235988;27;5650;-70
2022/08/26 09:20:17;;;;;;;;;;;;;;;27.37;48.80;96777.06;4227650;27;5757;-69
2022/08/26 09:22:32;;;;;;;;;;;;;;;27.34;48.81;96766.81;4218925;28;6345;-69
2022/08/26 09:24:39;;;;;;;;;;;;;;;27.31;48.71;96768.25;4218606;28;5754;-70
2022/08/26 09:26:51;;;;;;;;;;;;;;;27.26;48.67;96763.69;4217832;28;6699;-77
2022/08/26 09:28:58;;;;;;;;;;;;;;;27.30;48.71;96773.97;4219248;28;5818;-70
2022/08/26 09:31:10;;;;;;;;;;;;;;;27.28;48.77;96774.25;4218972;28;5679;-68
2022/08/26 09:33:18;;;;;;;;;;;;;;;27.25;48.90;96772.94;4218760;28;5683;-68
2022/08/26 09:35:29;;;;;;;;;;;;;;;27.23;48.69;96771.66;4218709;28;5676;-73
2022/08/26 09:37:35;;;;;;;;;;;;;;;27.20;49.12;96772.25;4218444;28;5754;-69
2022/08/26 09:39:39;;;;;;;;;;;;;;;27.21;49.10;96774.66;4213538;28;5097;-69
2022/08/26 09:41:43;;;;;;;;;;;;;;;27.21;49.22;96769.22;4216276;28;5737;-69
2022/08/26 09:44:10;;;;;;;;;;;;;;;27.23;49.24;96771.66;4227813;27;5744;-73
2022/08/26 09:46:26;;;;;;;;;;;;;;;27.20;49.09;96778.47;4208100;28;5700;-68
2022/08/26 09:48:33;;;;;;;;;;;;;;;27.20;49.36;96770.34;4214905;28;5886;-69
2022/08/26 09:50:52;;;;;;;;;;;;;;;27.20;49.43;96778.47;4216145;28;5691;-68
2022/08/26 09:53:08;;;;;;;;;;;;;;;27.14;49.51;96774.25;4209501;28;5867;-68
2022/08/26 09:55:22;;;;;;;;;;;;;;;27.13;49.85;96769.91;4203956;28;5772;-71
2022/08/26 09:57:28;;;;;;;;;;;;;;;27.16;49.81;96766.59;4216905;28;5679;-68
2022/08/26 09:59:30;;;;;;;;;;;;;;;27.15;49.79;96765.00;4210240;28;5722;-69
2022/08/26 10:01:36;;;;;;;;;;;;;;;27.14;49.83;96766.09;4213681;28;5742;-68
2022/08/26 10:03:40;;;;;;;;;;;;;;;27.15;50.08;96769.63;4214888;28;6001;-68
2022/08/26 10:05:56;;;;;;;;;;;;;;;27.14;49.84;96773.44;4212246;28;5758;-69
2022/08/26 10:08:08;;;;;;;;;;;;;;;27.15;50.00;96770.41;4205545;28;5739;-73
2022/08/26 10:10:18;;;;;;;;;;;;;;;27.16;50.25;96763.09;4205826;28;5671;-71
2022/08/26 10:12:23;;;;;;;;;;;;;;;27.17;50.04;96764.69;4213791;28;5691;-71
2022/08/26 10:14:30;;;;;;;;;;;;;;;27.13;50.21;96761.78;4216843;28;5755;-70
2022/08/26 10:16:41;;;;;;;;;;;;;;;27.12;50.28;96760.19;4206768;28;5694;-70
2022/08/26 10:18:50;;;;;;;;;;;;;;;27.14;50.16;96757.16;4212495;28;6524;-70
2022/08/26 10:21:02;;;;;;;;;;;;;;;27.17;50.28;96756.56;4207215;28;5789;-70
2022/08/26 10:23:11;;;;;;;;;;;;;;;27.18;50.30;96760.88;4205889;28;5793;-69
2022/08/26 10:25:20;;;;;;;;;;;;;;;27.18;50.34;96759.00;4209445;28;5816;-70
2022/08/26 10:27:31;;;;;;;;;;;;;;;27.18;50.17;96753.56;4207961;28;5731;-75
2022/08/26 10:29:40;;;;;;;;;;;;;;;27.21;50.46;96761.09;4203826;28;5138;-71
2022/08/26 10:31:48;;;;;;;;;;;;;;;27.22;50.35;96754.56;4214039;28;5691;-73
2022/08/26 10:33:54;;;;;;;;;;;;;;;27.22;50.34;96759.19;4217844;28;5739;-70
2022/08/26 10:36:47;;;;;;;;;;;;;;;27.24;50.47;96756.97;4217877;28;5679;-70
2022/08/26 10:38:41;;;;;;;;;;;;;;;27.22;50.34;96757.28;4203663;28;5758;-74
2022/08/26 10:40:54;;;;;;;;;;;;;;;27.23;50.48;96753.44;4214699;28;5644;-75
2022/08/26 10:43:06;;;;;;;;;;;;;;;27.21;50.41;96754.88;4212901;28;6368;-73
2022/08/26 10:45:15;;;;;;;;;;;;;;;27.20;50.54;96761.41;4210753;28;5766;-73
2022/08/26 10:47:24;;;;;;;;;;;;;;;27.20;50.56;96755.97;4216036;28;5089;-73
2022/08/26 10:49:30;;;;;;;;;;;;;;;27.20;50.36;96754.06;4215019;28;5783;-73
2022/08/26 10:51:41;;;;;;;;;;;;;;;27.21;50.58;96752.94;4212454;28;5730;-73
2022/08/26 10:53:54;;;;;;;;;;;;;;;27.21;50.22;96752.16;4211141;28;5691;-73
2022/08/26 10:56:04;;;;;;;;;;;;;;;27.19;50.24;96747.03;4209166;28;5708;-74
2022/08/26 10:58:49;;;;;;;;;;;;;;;27.19;50.30;96749.75;4214129;28;5686;-73
2022/08/26 11:03:34;;;;;;;;;;;;;;;27.19;50.31;96743.50;4205440;28;5692;-74
2022/08/26 11:05:39;;;;;;;;;;;;;;;27.18;50.33;96748.13;4212124;28;5758;-72
2022/08/26 11:07:47;;;;;;;;;;;;;;;27.19;50.01;96749.75;4213833;28;5783;-73
2022/08/26 11:09:51;;;;;;;;;;;;;;;27.19;49.95;96747.03;4204204;28;5774;-73
2022/08/26 11:11:54;;;;;;;;;;;;;;;27.19;50.01;96752.44;4215279;28;5798;-73
2022/08/26 11:14:03;;;;;;;;;;;;;;;27.19;50.12;96744.31;4216955;28;5688;-75
2022/08/26 11:16:09;;;;;;;;;;;;;;;27.22;50.07;96751.03;4206164;28;5852;-74
2022/08/26 11:18:32;;;;;;;;;;;;;;;27.15;49.66;96746.00;4210693;28;5667;-73
2022/08/26 11:20:39;;;;;;;;;;;;;;;27.13;49.54;96748.22;4212235;28;5682;-74
2022/08/26 11:22:45;;;;;;;;;;;;;;;27.17;49.53;96749.22;4211437;28;5674;-74
2022/08/26 11:25:11;;;;;;;;;;;;;;;27.21;49.56;96752.94;4207210;28;5656;-73
2022/08/26 11:28:05;;;;;;;;;;;;;;;27.23;49.45;96745.31;4202695;28;5696;-73
2022/08/26 11:30:29;;;;;;;;;;;;;;;27.25;49.32;96745.81;4198848;28;5675;-74
2022/08/26 11:32:48;;;;;;;;;;;;;;;27.26;49.11;96739.28;4213116;28;5686;-74
2022/08/26 11:34:55;;;;;;;;;;;;;;;27.26;49.04;96744.69;4214306;28;5707;-74
2022/08/26 11:37:00;;;;;;;;;;;;;;;27.30;48.91;96741.41;4207512;28;5727;-72
2022/08/26 11:39:18;;;;;;;;;;;;;;;27.30;48.58;96741.41;4206336;28;5779;-73
2022/08/26 11:41:27;;;;;;;;;;;;;;;27.31;48.84;96740.28;4207934;28;5707;-73
2022/08/26 11:43:34;;;;;;;;;;;;;;;27.30;48.90;96741.41;4204090;28;5680;-72
2022/08/26 11:45:39;;;;;;;;;;;;;;;27.26;48.85;96733.84;4212092;28;5687;-72
2022/08/26 11:47:45;;;;;;;;;;;;;;;27.24;48.91;96735.25;4210630;28;5818;-73
2022/08/26 11:50:05;;;;;;;;;;;;;;;27.22;49.10;96735.56;4206158;28;5732;-73
2022/08/26 11:52:10;;;;;;;;;;;;;;;27.24;48.94;96736.06;4203326;28;5732;-72
2022/08/26 11:54:17;;;;;;;;;;;;;;;27.29;49.10;96729.72;4211475;28;5664;-73
2022/08/26 11:56:39;;;;;;;;;;;;;;;27.37;49.19;96725.50;4209257;28;6361;-72
2022/08/26 11:58:44;;;;;;;;;;;;;;;27.41;49.13;96729.22;4209345;28;5865;-73
2022/08/26 12:00:51;;;;;;;;;;;;;;;27.45;49.21;96719.38;4208565;28;5679;-73
2022/08/26 12:02:55;;;;;;;;;;;;;;;27.50;48.81;96714.63;4206614;28;5772;-73
2022/08/26 12:05:00;;;;;;;;;;;;;;;27.52;48.92;96715.16;4210825;28;5680;-73
2022/08/26 12:07:07;;;;;;;;;;;;;;;27.61;49.08;96717.13;4213131;28;5687;-73
2022/08/26 12:09:13;;;;;;;;;;;;;;;27.69;48.81;96724.59;4215766;28;5687;-73
2022/08/26 12:11:23;;;;;;;;;;;;;;;27.73;48.52;96718.25;4212792;28;5716;-73
2022/08/26 12:13:26;;;;;;;;;;;;;;;27.77;48.46;96721.16;4210900;28;6511;-73
2022/08/26 12:15:31;;;;;;;;;;;;;;;27.81;48.25;96716.72;4215398;28;5675;-73
2022/08/26 12:17:35;;;;;;;;;;;;;;;27.84;47.86;96719.63;4215004;28;7119;-73
2022/08/26 12:19:39;;;;;;;;;;;;;;;27.88;47.97;96719.84;4213849;28;5679;-73
2022/08/26 12:21:47;;;;;;;;;;;;;;;27.88;47.75;96716.31;4211488;28;5810;-73
2022/08/26 12:23:53;;;;;;;;;;;;;;;27.87;47.51;96717.44;4208831;28;5703;-73
2022/08/26 12:26:04;;;;;;;;;;;;;;;27.87;47.59;96710.09;4210449;28;5766;-73
2022/08/26 12:28:09;;;;;;;;;;;;;;;27.91;47.39;96710.25;4209846;28;5700;-73
2022/08/26 12:30:21;;;;;;;;;;;;;;;27.95;47.09;96713.97;4211987;28;5888;-73
2022/08/26 12:32:24;;;;;;;;;;;;;;;27.94;47.16;96720.50;4214263;28;5855;-69
2022/08/26 12:34:30;;;;;;;;;;;;;;;27.93;47.04;96716.19;4212237;28;5683;-69
2022/08/26 12:36:38;;;;;;;;;;;;;;;27.94;46.74;96715.06;4208561;28;5754;-68
2022/08/26 12:38:47;;;;;;;;;;;;;;;27.97;46.71;96714.44;4213394;28;5866;-69
2022/08/26 12:40:51;;;;;;;;;;;;;;;27.99;46.56;96709.53;4213235;28;5676;-69
2022/08/26 12:42:55;;;;;;;;;;;;;;;28.01;46.34;96718.97;4210165;28;6598;-69
2022/08/26 12:45:02;;;;;;;;;;;;;;;28.02;46.26;96708.91;4221814;27;6404;-69
2022/08/26 12:47:09;;;;;;;;;;;;;;;28.01;46.35;96710.03;4212734;28;6581;-69
2022/08/26 12:49:17;;;;;;;;;;;;;;;28.04;45.95;96710.22;4202335;28;5700;-69
2022/08/26 12:51:24;;;;;;;;;;;;;;;28.06;45.91;96701.75;4204089;28;5713;-69
2022/08/26 12:53:29;;;;;;;;;;;;;;;28.04;45.85;96698.53;4207423;28;5720;-69
2022/08/26 12:55:39;;;;;;;;;;;;;;;28.08;45.68;96694.09;4207098;28;5671;-69
2022/08/26 12:57:41;;;;;;;;;;;;;;;28.10;45.46;96700.84;4214264;28;5785;-69
2022/08/26 12:59:44;;;;;;;;;;;;;;;28.14;45.47;96688.25;4211259;28;5742;-69
2022/08/26 13:01:49;;;;;;;;;;;;;;;28.14;45.38;96687.44;4213182;28;6387;-69
2022/08/26 13:03:52;;;;;;;;;;;;;;;28.17;45.36;96699.59;4217898;28;5679;-69
2022/08/26 13:06:08;;;;;;;;;;;;;;;28.10;45.29;96681.81;4212449;28;5931;-69
2022/08/26 13:08:26;;;;;;;;;;;;;;;28.08;45.60;96688.66;4202180;28;5752;-69
2022/08/26 13:10:35;;;;;;;;;;;;;;;28.05;45.91;96686.56;4201524;28;5721;-69
2022/08/26 13:12:39;;;;;;;;;;;;;;;28.01;46.23;96682.88;4211442;28;5751;-69
2022/08/26 13:14:42;;;;;;;;;;;;;;;27.95;46.36;96684.88;4213528;28;5679;-69
2022/08/26 13:16:46;;;;;;;;;;;;;;;27.94;46.59;96682.47;4213633;28;5770;-69
2022/08/26 13:18:54;;;;;;;;;;;;;;;27.87;46.69;96674.75;4214686;28;5651;-70
2022/08/26 13:20:57;;;;;;;;;;;;;;;27.81;46.76;96675.97;4204708;28;5110;-70
2022/08/26 13:23:00;;;;;;;;;;;;;;;27.78;46.90;96677.41;4211396;28;5699;-69
2022/08/26 13:25:04;;;;;;;;;;;;;;;27.74;46.98;96676.38;4213614;28;5797;-69
2022/08/26 13:27:09;;;;;;;;;;;;;;;27.70;47.12;96678.13;4210356;28;5726;-70
2022/08/26 13:29:13;;;;;;;;;;;;;;;27.66;47.15;96681.75;4211068;28;5671;-70
2022/08/26 13:31:16;;;;;;;;;;;;;;;27.62;47.04;96675.28;4206741;28;5804;-69
2022/08/26 13:33:21;;;;;;;;;;;;;;;27.58;47.30;96682.44;4205307;28;5700;-70
2022/08/26 13:35:26;;;;;;;;;;;;;;;27.58;47.03;96679.72;4208832;28;5732;-69
2022/08/26 13:37:29;;;;;;;;;;;;;;;27.56;47.06;96675.41;4212245;28;5708;-69
2022/08/26 13:39:38;;;;;;;;;;;;;;;27.52;46.96;96670.88;4216439;28;5661;-70
2022/08/26 13:41:42;;;;;;;;;;;;;;;27.56;47.03;96672.69;4211328;28;5766;-69
2022/08/26 13:43:46;;;;;;;;;;;;;;;27.54;46.86;96663.25;4216172;28;5769;-70
2022/08/26 13:45:51;;;;;;;;;;;;;;;27.52;47.01;96669.00;4211919;28;5668;-70
2022/08/26 13:47:54;;;;;;;;;;;;;;;27.52;47.05;96660.84;4211895;28;5806;-69
2022/08/26 13:50:02;;;;;;;;;;;;;;;27.53;46.98;96665.16;4213005;28;5802;-70
2022/08/26 13:52:06;;;;;;;;;;;;;;;27.58;46.87;96663.44;4213720;28;5792;-70
2022/08/26 13:54:12;;;;;;;;;;;;;;;27.60;46.69;96658.50;4215337;28;5663;-70
2022/08/26 13:56:15;;;;;;;;;;;;;;;27.60;46.68;96656.59;4216897;28;5690;-70
2022/08/26 13:58:18;;;;;;;;;;;;;;;27.64;46.56;96657.59;4208201;28;5723;-70
2022/08/26 14:00:21;;;;;;;;;;;;;;;27.66;46.55;96660.84;4211634;28;5781;-70
2022/08/26 14:02:25;;;;;;;;;;;;;;;27.67;46.64;96651.59;4211799;28;5849;-79
2022/08/26 14:04:28;;;;;;;;;;;;;;;27.69;46.63;96646.63;4214095;28;5841;-82
2022/08/26 14:06:33;;;;;;;;;;;;;;;27.72;46.71;96648.75;4212515;28;5675;-83
2022/08/26 14:08:38;;;;;;;;;;;;;;;27.75;46.44;96647.34;4212946;28;6464;-69
2022/08/26 14:10:41;;;;;;;;;;;;;;;27.77;46.37;96647.84;4212795;28;5910;-69
2022/08/26 14:12:44;;;;;;;;;;;;;;;27.80;46.51;96649.94;4215344;28;5865;-68
2022/08/26 14:14:48;;;;;;;;;;;;;;;27.83;46.44;96641.97;4216589;28;5955;-69
2022/08/26 14:16:51;;;;;;;;;;;;;;;27.87;46.45;96633.22;4216531;28;5826;-69
2022/08/26 14:19:03;;;;;;;;;;;;;;;27.88;46.18;96640.25;4217418;28;5680;-70
2022/08/26 14:21:11;;;;;;;;;;;;;;;27.89;46.56;96642.66;4217004;28;5667;-69
2022/08/26 14:23:14;;;;;;;;;;;;;;;27.88;46.41;96637.53;4205589;28;5678;-69
2022/08/26 14:25:20;;;;;;;;;;;;;;;27.85;46.23;96631.59;4217293;28;5687;-69
2022/08/26 14:27:26;;;;;;;;;;;;;;;27.87;45.99;96625.06;4216598;28;5840;-69
2022/08/26 14:29:29;;;;;;;;;;;;;;;27.88;45.91;96629.38;4214063;28;5809;-69
2022/08/26 14:31:33;;;;;;;;;;;;;;;27.88;46.06;96623.97;4212445;28;5679;-69
2022/08/26 14:33:37;;;;;;;;;;;;;;;27.88;45.81;96635.63;4216520;28;5882;-69
2022/08/26 14:35:41;;;;;;;;;;;;;;;27.87;45.99;96623.16;4216346;28;5788;-69
2022/08/26 14:37:52;;;;;;;;;;;;;;;27.87;45.55;96628.59;4214464;28;5686;-69
2022/08/26 14:39:55;;;;;;;;;;;;;;;27.88;45.72;96629.38;4212461;28;6141;-69
2022/08/26 14:42:03;;;;;;;;;;;;;;;27.88;45.66;96619.31;4216153;28;5822;-66
2022/08/26 14:44:10;;;;;;;;;;;;;;;27.87;45.37;96630.50;4215814;28;5754;-67
2022/08/26 14:46:15;;;;;;;;;;;;;;;27.85;45.30;96623.44;4212387;28;7749;-68
2022/08/26 14:48:18;;;;;;;;;;;;;;;27.83;45.27;96619.44;4212141;28;5872;-68
2022/08/26 14:50:23;;;;;;;;;;;;;;;27.83;45.27;96619.44;4215916;28;5715;-67
2022/08/26 14:52:26;;;;;;;;;;;;;;;27.82;45.24;96621.34;4212166;28;5766;-68
2022/08/26 14:54:28;;;;;;;;;;;;;;;27.82;45.09;96625.97;4211875;28;5828;-68
2022/08/26 14:56:32;;;;;;;;;;;;;;;27.82;44.93;96621.34;4210169;28;6828;-69
2022/08/26 14:58:36;;;;;;;;;;;;;;;27.81;44.84;96619.75;4207647;28;5085;-68
2022/08/26 15:00:39;;;;;;;;;;;;;;;27.80;44.91;96618.13;4206650;28;5773;-68
2022/08/26 15:02:43;;;;;;;;;;;;;;;27.80;44.82;96614.63;4208998;28;6431;-68